createdAt,value
2018-11-27T00:00:11.597Z,0
2018-11-27T00:01:11.584Z,0
2018-11-27T00:02:11.579Z,0
2018-11-27T00:03:11.097Z,0
2018-11-27T00:04:11.574Z,0
2018-11-27T00:05:11.567Z,0
2018-11-27T00:06:11.619Z,0
2018-11-27T00:07:11.566Z,0
2018-11-27T00:08:11.313Z,0
2018-11-27T00:09:11.856Z,0
2018-11-27T00:10:11.554Z,0
2018-11-27T00:11:11.059Z,0
2018-11-27T00:12:11.545Z,0
2018-11-27T00:13:11.559Z,0
2018-11-27T00:14:11.535Z,0
2018-11-27T00:15:11.533Z,0
2018-11-27T00:16:11.287Z,0
2018-11-27T00:17:11.278Z,0
2018-11-27T00:18:11.037Z,0
2018-11-27T00:19:11.519Z,0
2018-11-27T00:20:11.262Z,0
2018-11-27T00:21:11.318Z,0
2018-11-27T00:22:11.509Z,0
2018-11-27T00:23:11.502Z,0
2018-11-27T00:24:11.002Z,0
2018-11-27T00:25:11.244Z,0
2018-11-27T00:26:11.241Z,0
2018-11-27T00:27:11.485Z,0
2018-11-27T00:28:11.247Z,0
2018-11-27T00:29:11.475Z,0
2018-11-27T00:30:11.235Z,0
2018-11-27T00:31:11.247Z,0
2018-11-27T00:32:11.472Z,0
2018-11-27T00:33:11.462Z,0
2018-11-27T00:34:11.211Z,0
2018-11-27T00:35:11.451Z,0
2018-11-27T00:36:11.263Z,0
2018-11-27T00:37:11.448Z,0
2018-11-27T00:38:11.445Z,0
2018-11-27T00:39:11.193Z,0
2018-11-27T00:40:11.190Z,0
2018-11-27T00:41:11.482Z,0
2018-11-27T00:42:11.425Z,0
2018-11-27T00:43:11.422Z,0
2018-11-27T00:44:11.418Z,0
2018-11-27T00:45:11.433Z,0
2018-11-27T00:46:11.416Z,0
2018-11-27T00:47:10.922Z,0
2018-11-27T00:48:11.422Z,0
2018-11-27T00:49:11.393Z,4
2018-11-27T00:50:10.909Z,4
2018-11-27T00:51:11.447Z,0
2018-11-27T00:52:11.369Z,0
2018-11-27T00:53:11.374Z,0
2018-11-27T00:54:11.386Z,0
2018-11-27T00:55:11.363Z,0
2018-11-27T00:56:11.112Z,0
2018-11-27T00:57:11.112Z,0
2018-11-27T00:58:11.357Z,0
2018-11-27T00:59:11.344Z,0
2018-11-27T01:00:11.357Z,0
2018-11-27T01:01:11.095Z,0
2018-11-27T01:02:11.382Z,0
2018-11-27T01:03:11.336Z,0
2018-11-27T01:04:11.330Z,0
2018-11-27T01:05:11.331Z,0
2018-11-27T01:06:11.473Z,0
2018-11-27T01:07:11.087Z,0
2018-11-27T01:08:11.084Z,0
2018-11-27T01:09:11.324Z,0
2018-11-27T01:10:11.075Z,0
2018-11-27T01:11:11.339Z,0
2018-11-27T01:12:11.309Z,0
2018-11-27T01:13:11.057Z,0
2018-11-27T01:14:11.058Z,0
2018-11-27T01:15:11.295Z,0
2018-11-27T01:16:11.294Z,0
2018-11-27T01:17:11.317Z,0
2018-11-27T01:18:11.291Z,0
2018-11-27T01:19:11.046Z,0
2018-11-27T01:20:11.283Z,0
2018-11-27T01:21:11.079Z,0
2018-11-27T01:22:11.275Z,0
2018-11-27T01:23:11.261Z,0
2018-11-27T01:24:11.259Z,0
2018-11-27T01:25:11.010Z,0
2018-11-27T01:26:11.005Z,0
2018-11-27T01:27:11.251Z,0
2018-11-27T01:28:11.271Z,0
2018-11-27T01:29:11.004Z,0
2018-11-27T01:30:10.993Z,0
2018-11-27T01:31:11.293Z,0
2018-11-27T01:32:10.996Z,0
2018-11-27T01:33:11.226Z,0
2018-11-27T01:34:11.291Z,0
2018-11-27T01:35:10.994Z,0
2018-11-27T01:36:11.243Z,0
2018-11-27T01:37:10.956Z,0
2018-11-27T01:38:11.191Z,0
2018-11-27T01:39:10.705Z,0
2018-11-27T01:40:11.176Z,0
2018-11-27T01:41:11.178Z,0
2018-11-27T01:42:11.180Z,0
2018-11-27T01:43:11.173Z,0
2018-11-27T01:44:11.169Z,0
2018-11-27T01:45:11.166Z,0
2018-11-27T01:46:10.930Z,0
2018-11-27T01:47:11.170Z,0
2018-11-27T01:48:11.173Z,0
2018-11-27T01:49:11.188Z,0
2018-11-27T01:50:11.164Z,0
2018-11-27T01:51:10.969Z,0
2018-11-27T01:52:10.930Z,0
2018-11-27T01:53:11.142Z,0
2018-11-27T01:54:10.901Z,0
2018-11-27T01:55:11.140Z,0
2018-11-27T01:56:11.194Z,0
2018-11-27T01:57:11.134Z,0
2018-11-27T01:58:11.120Z,0
2018-11-27T01:59:11.128Z,0
2018-11-27T02:00:11.114Z,0
2018-11-27T02:01:10.875Z,0
2018-11-27T02:02:11.119Z,0
2018-11-27T02:03:11.103Z,0
2018-11-27T02:04:11.110Z,0
2018-11-27T02:05:11.102Z,0
2018-11-27T02:06:10.610Z,0
2018-11-27T02:07:11.096Z,0
2018-11-27T02:08:11.087Z,0
2018-11-27T02:09:11.284Z,0
2018-11-27T02:10:10.835Z,0
2018-11-27T02:11:11.125Z,0
2018-11-27T02:12:11.077Z,0
2018-11-27T02:13:11.069Z,0
2018-11-27T02:14:11.074Z,0
2018-11-27T02:15:10.821Z,0
2018-11-27T02:16:11.055Z,4
2018-11-27T02:17:11.062Z,0
2018-11-27T02:18:11.057Z,0
2018-11-27T02:19:11.056Z,0
2018-11-27T02:20:10.807Z,0
2018-11-27T02:21:11.096Z,0
2018-11-27T02:22:10.552Z,0
2018-11-27T02:23:11.037Z,0
2018-11-27T02:24:10.780Z,0
2018-11-27T02:25:11.032Z,0
2018-11-27T02:26:11.021Z,0
2018-11-27T02:27:11.021Z,0
2018-11-27T02:28:11.015Z,0
2018-11-27T02:29:11.012Z,0
2018-11-27T02:30:10.771Z,0
2018-11-27T02:31:11.005Z,0
2018-11-27T02:32:10.997Z,0
2018-11-27T02:33:11.021Z,0
2018-11-27T02:34:10.746Z,0
2018-11-27T02:35:10.988Z,0
2018-11-27T02:36:10.839Z,0
2018-11-27T02:37:10.984Z,0
2018-11-27T02:38:10.981Z,0
2018-11-27T02:39:10.743Z,0
2018-11-27T02:40:10.977Z,0
2018-11-27T02:41:11.017Z,0
2018-11-27T02:42:10.984Z,0
2018-11-27T02:43:10.968Z,0
2018-11-27T02:44:10.958Z,0
2018-11-27T02:45:10.698Z,0
2018-11-27T02:46:11.948Z,0
2018-11-27T02:47:10.696Z,0
2018-11-27T02:48:10.946Z,0
2018-11-27T02:49:10.942Z,0
2018-11-27T02:50:10.938Z,0
2018-11-27T02:51:10.936Z,0
2018-11-27T02:52:10.933Z,0
2018-11-27T02:53:10.942Z,0
2018-11-27T02:54:10.668Z,0
2018-11-27T02:55:10.909Z,0
2018-11-27T02:56:10.717Z,0
2018-11-27T02:57:10.908Z,0
2018-11-27T02:58:10.905Z,0
2018-11-27T02:59:10.893Z,0
2018-11-27T03:00:10.893Z,0
2018-11-27T03:01:10.678Z,0
2018-11-27T03:02:10.876Z,0
2018-11-27T03:03:10.874Z,0
2018-11-27T03:04:10.868Z,0
2018-11-27T03:05:10.618Z,0
2018-11-27T03:06:10.900Z,0
2018-11-27T03:07:10.864Z,0
2018-11-27T03:08:10.876Z,0
2018-11-27T03:09:10.868Z,0
2018-11-27T03:10:10.857Z,0
2018-11-27T03:11:10.618Z,0
2018-11-27T03:12:10.605Z,0
2018-11-27T03:13:10.608Z,0
2018-11-27T03:14:10.837Z,0
2018-11-27T03:15:10.839Z,0
2018-11-27T03:16:10.636Z,0
2018-11-27T03:17:10.633Z,0
2018-11-27T03:18:10.846Z,0
2018-11-27T03:19:10.576Z,0
2018-11-27T03:20:10.822Z,0
2018-11-27T03:21:10.605Z,0
2018-11-27T03:22:10.812Z,0
2018-11-27T03:23:10.829Z,0
2018-11-27T03:24:10.804Z,0
2018-11-27T03:25:10.810Z,0
2018-11-27T03:26:10.560Z,0
2018-11-27T03:27:10.794Z,0
2018-11-27T03:28:10.787Z,0
2018-11-27T03:29:10.794Z,0
2018-11-27T03:30:10.797Z,0
2018-11-27T03:31:10.834Z,0
2018-11-27T03:32:10.786Z,0
2018-11-27T03:33:10.784Z,0
2018-11-27T03:34:10.765Z,0
2018-11-27T03:35:10.757Z,0
2018-11-27T03:36:10.514Z,0
2018-11-27T03:37:10.776Z,0
2018-11-27T03:38:10.760Z,0
2018-11-27T03:39:10.751Z,0
2018-11-27T03:40:10.746Z,0
2018-11-27T03:41:10.497Z,0
2018-11-27T03:42:10.747Z,0
2018-11-27T03:43:10.748Z,0
2018-11-27T03:44:10.236Z,0
2018-11-27T03:45:10.728Z,0
2018-11-27T03:46:10.773Z,0
2018-11-27T03:47:10.710Z,0
2018-11-27T03:48:10.462Z,0
2018-11-27T03:49:10.695Z,0
2018-11-27T03:50:10.216Z,0
2018-11-27T03:51:10.712Z,0
2018-11-27T03:52:10.691Z,0
2018-11-27T03:53:10.195Z,0
2018-11-27T03:54:10.684Z,0
2018-11-27T03:55:10.435Z,0
2018-11-27T03:56:10.484Z,0
2018-11-27T03:57:10.682Z,0
2018-11-27T03:58:10.666Z,0
2018-11-27T03:59:10.424Z,0
2018-11-27T04:00:10.181Z,0
2018-11-27T04:01:10.647Z,0
2018-11-27T04:02:10.655Z,0
2018-11-27T04:03:10.650Z,0
2018-11-27T04:04:14.598Z,0
2018-11-27T04:05:10.642Z,0
2018-11-27T04:06:10.637Z,0
2018-11-27T04:07:10.392Z,0
2018-11-27T04:08:10.644Z,4
2018-11-27T04:09:10.619Z,0
2018-11-27T04:10:10.618Z,0
2018-11-27T04:11:10.685Z,0
2018-11-27T04:12:10.594Z,0
2018-11-27T04:13:10.579Z,0
2018-11-27T04:14:10.574Z,0
2018-11-27T04:15:10.573Z,0
2018-11-27T04:16:10.735Z,0
2018-11-27T04:17:10.600Z,0
2018-11-27T04:18:10.372Z,0
2018-11-27T04:19:10.110Z,0
2018-11-27T04:20:10.617Z,0
2018-11-27T04:21:10.591Z,0
2018-11-27T04:22:10.602Z,0
2018-11-27T04:23:10.586Z,0
2018-11-27T04:24:10.566Z,0
2018-11-27T04:25:10.565Z,0
2018-11-27T04:26:10.655Z,0
2018-11-27T04:27:10.572Z,0
2018-11-27T04:28:10.556Z,0
2018-11-27T04:29:10.570Z,0
2018-11-27T04:30:10.541Z,0
2018-11-27T04:31:10.542Z,0
2018-11-27T04:32:10.534Z,0
2018-11-27T04:33:10.548Z,0
2018-11-27T04:34:10.306Z,0
2018-11-27T04:35:10.523Z,0
2018-11-27T04:36:10.522Z,0
2018-11-27T04:37:10.518Z,0
2018-11-27T04:38:10.524Z,0
2018-11-27T04:39:10.513Z,0
2018-11-27T04:40:10.526Z,0
2018-11-27T04:41:10.600Z,0
2018-11-27T04:42:10.511Z,0
2018-11-27T04:43:10.493Z,0
2018-11-27T04:44:10.486Z,0
2018-11-27T04:45:10.232Z,0
2018-11-27T04:46:10.481Z,0
2018-11-27T04:47:10.241Z,0
2018-11-27T04:48:10.482Z,0
2018-11-27T04:49:10.477Z,0
2018-11-27T04:50:10.483Z,0
2018-11-27T04:51:10.459Z,0
2018-11-27T04:52:10.473Z,0
2018-11-27T04:53:10.208Z,0
2018-11-27T04:54:10.452Z,0
2018-11-27T04:55:10.437Z,0
2018-11-27T04:56:10.246Z,0
2018-11-27T04:57:10.429Z,0
2018-11-27T04:58:10.428Z,0
2018-11-27T04:59:10.431Z,0
2018-11-27T05:00:10.173Z,0
2018-11-27T05:01:10.433Z,0
2018-11-27T05:02:10.410Z,0
2018-11-27T05:03:10.416Z,0
2018-11-27T05:04:10.416Z,0
2018-11-27T05:05:10.402Z,0
2018-11-27T05:06:10.400Z,0
2018-11-27T05:07:10.145Z,0
2018-11-27T05:08:10.389Z,0
2018-11-27T05:09:10.393Z,0
2018-11-27T05:10:10.383Z,0
2018-11-27T05:11:10.431Z,0
2018-11-27T05:12:10.129Z,0
2018-11-27T05:13:10.372Z,0
2018-11-27T05:14:10.370Z,0
2018-11-27T05:15:10.426Z,0
2018-11-27T05:16:10.367Z,0
2018-11-27T05:17:10.355Z,0
2018-11-27T05:18:10.345Z,0
2018-11-27T05:19:10.348Z,0
2018-11-27T05:20:10.343Z,0
2018-11-27T05:21:10.340Z,0
2018-11-27T05:22:10.093Z,0
2018-11-27T05:23:10.337Z,0
2018-11-27T05:24:10.328Z,0
2018-11-27T05:25:10.322Z,0
2018-11-27T05:26:10.380Z,0
2018-11-27T05:27:10.342Z,0
2018-11-27T05:28:10.072Z,0
2018-11-27T05:29:10.064Z,0
2018-11-27T05:30:10.298Z,0
2018-11-27T05:31:10.302Z,0
2018-11-27T05:32:10.296Z,0
2018-11-27T05:33:10.299Z,0
2018-11-27T05:34:10.041Z,0
2018-11-27T05:35:10.285Z,0
2018-11-27T05:36:10.346Z,0
2018-11-27T05:37:10.277Z,0
2018-11-27T05:38:10.272Z,0
2018-11-27T05:39:10.261Z,0
2018-11-27T05:40:10.259Z,0
2018-11-27T05:41:10.018Z,0
2018-11-27T05:42:10.255Z,0
2018-11-27T05:43:10.254Z,0
2018-11-27T05:44:10.276Z,0
2018-11-27T05:45:10.021Z,0
2018-11-27T05:46:10.275Z,0
2018-11-27T05:47:10.231Z,0
2018-11-27T05:48:09.748Z,0
2018-11-27T05:49:09.981Z,0
2018-11-27T05:50:10.238Z,0
2018-11-27T05:51:10.281Z,0
2018-11-27T05:52:11.421Z,0
2018-11-27T05:53:10.212Z,0
2018-11-27T05:54:10.216Z,0
2018-11-27T05:55:10.205Z,0
2018-11-27T05:56:10.250Z,0
2018-11-27T05:57:10.208Z,0
2018-11-27T05:58:10.204Z,0
2018-11-27T05:59:10.209Z,0
2018-11-27T06:00:10.206Z,0
2018-11-27T06:01:09.944Z,0
2018-11-27T06:02:09.697Z,0
2018-11-27T06:03:10.180Z,4
2018-11-27T06:04:10.184Z,4
2018-11-27T06:05:10.179Z,4
2018-11-27T06:06:10.169Z,4
2018-11-27T06:07:10.163Z,4
2018-11-27T06:08:10.170Z,4
2018-11-27T06:09:10.164Z,4
2018-11-27T06:10:10.167Z,4
2018-11-27T06:11:09.961Z,0
2018-11-27T06:12:10.148Z,4
2018-11-27T06:13:10.138Z,4
2018-11-27T06:14:10.139Z,4
2018-11-27T06:15:10.136Z,8
2018-11-27T06:16:10.142Z,4
2018-11-27T06:17:10.114Z,8
2018-11-27T06:18:09.913Z,8
2018-11-27T06:19:09.635Z,8
2018-11-27T06:20:09.862Z,8
2018-11-27T06:21:10.104Z,8
2018-11-27T06:22:10.106Z,12
2018-11-27T06:23:10.095Z,12
2018-11-27T06:24:09.857Z,12
2018-11-27T06:25:10.102Z,16
2018-11-27T06:26:09.904Z,20
2018-11-27T06:27:10.090Z,20
2018-11-27T06:28:10.079Z,24
2018-11-27T06:29:10.088Z,24
2018-11-27T06:30:09.828Z,28
2018-11-27T06:31:10.084Z,32
2018-11-27T06:32:10.070Z,36
2018-11-27T06:33:10.063Z,36
2018-11-27T06:34:10.057Z,36
2018-11-27T06:35:09.867Z,44
2018-11-27T06:36:10.058Z,48
2018-11-27T06:37:10.055Z,48
2018-11-27T06:38:10.057Z,56
2018-11-27T06:39:09.791Z,56
2018-11-27T06:40:10.022Z,64
2018-11-27T06:41:10.071Z,68
2018-11-27T06:42:10.028Z,80
2018-11-27T06:43:09.831Z,80
2018-11-27T06:44:10.019Z,84
2018-11-27T06:45:09.778Z,92
2018-11-27T06:46:10.011Z,100
2018-11-27T06:47:09.521Z,108
2018-11-27T06:48:09.812Z,112
2018-11-27T06:49:10.005Z,120
2018-11-27T06:50:10.004Z,128
2018-11-27T06:51:09.755Z,132
2018-11-27T06:52:09.996Z,144
2018-11-27T06:53:10.001Z,148
2018-11-27T06:54:09.744Z,164
2018-11-27T06:55:09.978Z,172
2018-11-27T06:56:10.019Z,184
2018-11-27T06:57:09.966Z,200
2018-11-27T06:58:09.958Z,220
2018-11-27T06:59:09.962Z,240
2018-11-27T07:00:09.712Z,252
2018-11-27T07:01:09.947Z,272
2018-11-27T07:02:09.944Z,284
2018-11-27T07:03:09.958Z,300
2018-11-27T07:04:09.937Z,320
2018-11-27T07:05:09.935Z,324
2018-11-27T07:06:09.687Z,336
2018-11-27T07:07:09.936Z,360
2018-11-27T07:08:09.924Z,380
2018-11-27T07:09:09.675Z,396
2018-11-27T07:10:09.924Z,408
2018-11-27T07:11:10.012Z,416
2018-11-27T07:12:09.913Z,428
2018-11-27T07:13:09.901Z,456
2018-11-27T07:14:09.905Z,464
2018-11-27T07:15:09.656Z,464
2018-11-27T07:16:09.908Z,516
2018-11-27T07:17:09.649Z,540
2018-11-27T07:18:09.653Z,552
2018-11-27T07:19:09.650Z,576
2018-11-27T07:20:09.891Z,592
2018-11-27T07:21:09.877Z,620
2018-11-27T07:22:09.896Z,636
2018-11-27T07:23:09.898Z,652
2018-11-27T07:24:09.861Z,660
2018-11-27T07:25:09.368Z,660
2018-11-27T07:26:10.008Z,652
2018-11-27T07:27:09.853Z,660
2018-11-27T07:28:09.853Z,680
2018-11-27T07:29:09.612Z,680
2018-11-27T07:30:09.854Z,696
2018-11-27T07:31:09.350Z,708
2018-11-27T07:32:14.250Z,720
2018-11-27T07:33:09.832Z,744
2018-11-27T07:34:09.583Z,764
2018-11-27T07:35:09.581Z,792
2018-11-27T07:36:10.618Z,840
2018-11-27T07:37:09.841Z,860
2018-11-27T07:38:09.825Z,868
2018-11-27T07:39:09.584Z,892
2018-11-27T07:40:10.252Z,932
2018-11-27T07:41:09.857Z,944
2018-11-27T07:42:09.558Z,932
2018-11-27T07:43:09.557Z,928
2018-11-27T07:44:09.801Z,880
2018-11-27T07:45:09.792Z,880
2018-11-27T07:46:09.887Z,852
2018-11-27T07:47:09.777Z,832
2018-11-27T07:48:09.535Z,836
2018-11-27T07:49:09.775Z,820
2018-11-27T07:50:09.771Z,828
2018-11-27T07:51:09.818Z,836
2018-11-27T07:52:09.283Z,868
2018-11-27T07:53:09.770Z,896
2018-11-27T07:54:09.764Z,920
2018-11-27T07:55:09.752Z,924
2018-11-27T07:56:09.801Z,928
2018-11-27T07:57:09.251Z,968
2018-11-27T07:58:09.738Z,988
2018-11-27T07:59:09.735Z,1004
2018-11-27T08:00:09.737Z,992
2018-11-27T08:01:09.726Z,972
2018-11-27T08:02:09.723Z,960
2018-11-27T08:03:09.726Z,944
2018-11-27T08:04:09.725Z,948
2018-11-27T08:05:09.482Z,968
2018-11-27T08:06:09.762Z,952
2018-11-27T08:07:09.730Z,952
2018-11-27T08:08:09.721Z,1012
2018-11-27T08:09:09.713Z,1060
2018-11-27T08:10:09.695Z,1084
2018-11-27T08:11:10.698Z,1152
2018-11-27T08:12:09.695Z,1168
2018-11-27T08:13:09.699Z,1184
2018-11-27T08:14:09.688Z,1196
2018-11-27T08:15:09.682Z,1192
2018-11-27T08:16:09.436Z,1196
2018-11-27T08:17:09.672Z,1236
2018-11-27T08:18:09.429Z,1252
2018-11-27T08:19:09.427Z,1224
2018-11-27T08:20:09.660Z,1256
2018-11-27T08:21:09.718Z,1304
2018-11-27T08:22:09.654Z,1336
2018-11-27T08:23:09.653Z,1340
2018-11-27T08:24:09.656Z,1380
2018-11-27T08:25:09.647Z,1420
2018-11-27T08:26:09.412Z,1444
2018-11-27T08:27:09.660Z,1476
2018-11-27T08:28:09.637Z,1560
2018-11-27T08:29:09.638Z,1656
2018-11-27T08:30:09.636Z,1708
2018-11-27T08:31:09.626Z,1808
2018-11-27T08:32:09.621Z,1844
2018-11-27T08:33:09.628Z,1896
2018-11-27T08:34:09.617Z,2000
2018-11-27T08:35:09.369Z,2068
2018-11-27T08:36:09.660Z,2104
2018-11-27T08:37:09.617Z,2168
2018-11-27T08:38:09.115Z,2136
2018-11-27T08:39:09.596Z,2112
2018-11-27T08:40:09.594Z,2128
2018-11-27T08:41:09.589Z,2080
2018-11-27T08:42:09.339Z,2076
2018-11-27T08:43:09.586Z,2148
2018-11-27T08:44:09.583Z,2220
2018-11-27T08:45:09.574Z,2272
2018-11-27T08:46:09.571Z,2296
2018-11-27T08:47:09.579Z,2408
2018-11-27T08:48:09.330Z,2476
2018-11-27T08:49:09.565Z,2572
2018-11-27T08:50:09.567Z,2700
2018-11-27T08:51:09.600Z,2704
2018-11-27T08:52:09.560Z,2728
2018-11-27T08:53:09.544Z,2848
2018-11-27T08:54:09.582Z,2924
2018-11-27T08:55:09.546Z,2876
2018-11-27T08:56:09.542Z,2900
2018-11-27T08:57:09.291Z,2916
2018-11-27T08:58:09.528Z,2920
2018-11-27T08:59:09.532Z,2860
2018-11-27T09:00:09.527Z,2884
2018-11-27T09:01:09.523Z,2932
2018-11-27T09:02:09.529Z,3064
2018-11-27T09:03:09.519Z,3040
2018-11-27T09:04:09.513Z,2956
2018-11-27T09:05:09.555Z,3028
2018-11-27T09:06:09.320Z,3172
2018-11-27T09:07:09.500Z,3200
2018-11-27T09:08:09.254Z,3260
2018-11-27T09:09:09.505Z,3304
2018-11-27T09:10:09.498Z,3456
2018-11-27T09:11:09.507Z,3452
2018-11-27T09:12:09.486Z,3672
2018-11-27T09:13:09.485Z,3712
2018-11-27T09:14:09.483Z,3640
2018-11-27T09:15:09.234Z,3616
2018-11-27T09:16:09.484Z,3680
2018-11-27T09:17:09.230Z,3792
2018-11-27T09:18:09.473Z,3816
2018-11-27T09:19:09.472Z,3784
2018-11-27T09:20:09.463Z,3692
2018-11-27T09:21:09.515Z,3680
2018-11-27T09:22:12.684Z,3784
2018-11-27T09:23:09.215Z,3788
2018-11-27T09:24:09.204Z,3820
2018-11-27T09:25:09.213Z,3800
2018-11-27T09:26:09.452Z,3696
2018-11-27T09:27:09.441Z,3652
2018-11-27T09:28:09.438Z,3708
2018-11-27T09:29:09.448Z,3756
2018-11-27T09:30:09.190Z,3908
2018-11-27T09:31:09.529Z,3956
2018-11-27T09:32:09.454Z,4032
2018-11-27T09:33:09.437Z,3992
2018-11-27T09:34:09.430Z,3880
2018-11-27T09:35:09.457Z,3788
2018-11-27T09:36:09.473Z,3904
2018-11-27T09:37:09.460Z,3892
2018-11-27T09:38:09.415Z,3820
2018-11-27T09:39:09.171Z,3824
2018-11-27T09:40:09.410Z,3868
2018-11-27T09:41:10.590Z,3900
2018-11-27T09:42:09.408Z,3848
2018-11-27T09:43:09.166Z,3812
2018-11-27T09:44:09.403Z,3680
2018-11-27T09:45:09.413Z,3708
2018-11-27T09:46:09.540Z,3764
2018-11-27T09:47:09.393Z,3580
2018-11-27T09:48:09.144Z,3508
2018-11-27T09:49:09.382Z,3392
2018-11-27T09:50:09.400Z,3384
2018-11-27T09:51:09.432Z,3516
2018-11-27T09:52:09.345Z,3588
2018-11-27T09:53:09.354Z,3576
2018-11-27T09:54:09.352Z,3488
2018-11-27T09:55:09.120Z,3436
2018-11-27T09:56:09.373Z,3496
2018-11-27T09:57:09.118Z,3472
2018-11-27T09:58:09.363Z,3464
2018-11-27T09:59:09.356Z,3452
2018-11-27T10:00:09.114Z,3440
2018-11-27T10:01:09.354Z,3308
2018-11-27T10:02:09.355Z,3236
2018-11-27T10:03:09.349Z,3188
2018-11-27T10:04:09.355Z,3308
2018-11-27T10:05:09.100Z,3272
2018-11-27T10:06:09.393Z,3148
2018-11-27T10:07:09.604Z,3084
2018-11-27T10:08:09.348Z,3024
2018-11-27T10:09:09.373Z,3096
2018-11-27T10:10:09.332Z,3140
2018-11-27T10:11:09.341Z,3140
2018-11-27T10:12:09.327Z,3260
2018-11-27T10:13:09.327Z,3380
2018-11-27T10:14:08.838Z,3488
2018-11-27T10:15:09.314Z,3684
2018-11-27T10:16:09.137Z,3692
2018-11-27T10:17:09.070Z,3772
2018-11-27T10:18:09.306Z,3752
2018-11-27T10:19:09.064Z,3748
2018-11-27T10:20:09.326Z,3808
2018-11-27T10:21:09.349Z,3888
2018-11-27T10:22:09.293Z,3900
2018-11-27T10:23:09.050Z,4004
2018-11-27T10:24:10.366Z,4124
2018-11-27T10:25:09.293Z,4260
2018-11-27T10:26:09.300Z,4324
2018-11-27T10:27:09.361Z,4368
2018-11-27T10:28:09.288Z,4420
2018-11-27T10:29:09.277Z,4448
2018-11-27T10:30:09.281Z,4432
2018-11-27T10:31:09.378Z,4452
2018-11-27T10:32:09.268Z,4572
2018-11-27T10:33:09.286Z,4740
2018-11-27T10:34:09.276Z,4828
2018-11-27T10:35:09.262Z,4884
2018-11-27T10:36:09.064Z,4940
2018-11-27T10:37:09.006Z,4944
2018-11-27T10:38:09.011Z,4836
2018-11-27T10:39:09.016Z,4652
2018-11-27T10:40:09.014Z,4376
2018-11-27T10:41:09.007Z,4196
2018-11-27T10:42:09.032Z,4276
2018-11-27T10:43:09.238Z,4552
2018-11-27T10:44:09.001Z,4748
2018-11-27T10:45:09.243Z,4628
2018-11-27T10:46:09.373Z,4488
2018-11-27T10:47:09.240Z,4464
2018-11-27T10:48:09.231Z,4528
2018-11-27T10:49:09.268Z,4404
2018-11-27T10:50:09.255Z,4036
2018-11-27T10:51:09.279Z,3712
2018-11-27T10:52:09.226Z,3540
2018-11-27T10:53:09.227Z,3344
2018-11-27T10:54:08.976Z,3112
2018-11-27T10:55:09.213Z,2924
2018-11-27T10:56:09.264Z,2756
2018-11-27T10:57:09.209Z,2544
2018-11-27T10:58:08.964Z,2360
2018-11-27T10:59:08.963Z,2244
2018-11-27T11:00:09.215Z,2188
2018-11-27T11:01:09.211Z,2164
2018-11-27T11:02:08.961Z,2164
2018-11-27T11:03:09.214Z,2212
2018-11-27T11:04:08.947Z,2304
2018-11-27T11:05:09.196Z,2440
2018-11-27T11:06:09.196Z,2612
2018-11-27T11:07:09.187Z,2804
2018-11-27T11:08:08.940Z,3016
2018-11-27T11:09:08.938Z,3284
2018-11-27T11:10:09.176Z,3536
2018-11-27T11:11:09.233Z,3676
2018-11-27T11:12:09.187Z,3656
2018-11-27T11:13:09.175Z,3488
2018-11-27T11:14:09.190Z,3304
2018-11-27T11:15:09.172Z,3104
2018-11-27T11:16:09.223Z,2928
2018-11-27T11:17:09.166Z,2816
2018-11-27T11:18:08.915Z,2800
2018-11-27T11:19:08.916Z,2896
2018-11-27T11:20:10.167Z,2996
2018-11-27T11:21:09.413Z,3008
2018-11-27T11:22:09.153Z,2952
2018-11-27T11:23:09.147Z,2932
2018-11-27T11:24:08.901Z,3000
2018-11-27T11:25:08.968Z,3144
2018-11-27T11:26:09.146Z,3276
2018-11-27T11:27:08.891Z,3332
2018-11-27T11:28:09.132Z,3328
2018-11-27T11:29:09.135Z,3332
2018-11-27T11:30:08.931Z,3308
2018-11-27T11:31:08.933Z,3284
2018-11-27T11:32:09.135Z,3348
2018-11-27T11:33:09.146Z,3512
2018-11-27T11:34:09.137Z,3784
2018-11-27T11:35:09.162Z,4128
2018-11-27T11:36:08.929Z,4396
2018-11-27T11:37:09.119Z,4568
2018-11-27T11:38:08.872Z,4636
2018-11-27T11:39:09.120Z,4624
2018-11-27T11:40:09.115Z,4592
2018-11-27T11:41:08.876Z,4500
2018-11-27T11:42:08.861Z,4344
2018-11-27T11:43:09.167Z,4164
2018-11-27T11:44:08.864Z,4032
2018-11-27T11:45:09.095Z,3984
2018-11-27T11:46:08.950Z,3964
2018-11-27T11:47:08.846Z,3928
2018-11-27T11:48:09.093Z,3872
2018-11-27T11:49:09.111Z,3812
2018-11-27T11:50:09.083Z,3780
2018-11-27T11:51:09.131Z,3752
2018-11-27T11:52:09.072Z,3692
2018-11-27T11:53:09.084Z,3592
2018-11-27T11:54:09.076Z,3528
2018-11-27T11:55:09.086Z,3540
2018-11-27T11:56:08.890Z,3560
2018-11-27T11:57:08.832Z,3568
2018-11-27T11:58:09.071Z,3520
2018-11-27T11:59:09.066Z,3444
2018-11-27T12:00:09.071Z,3364
2018-11-27T12:01:09.106Z,3252
2018-11-27T12:02:09.059Z,3192
2018-11-27T12:03:09.067Z,3160
2018-11-27T12:04:09.080Z,3136
2018-11-27T12:05:09.057Z,3096
2018-11-27T12:06:09.054Z,3004
2018-11-27T12:07:09.053Z,2920
2018-11-27T12:08:09.046Z,2904
2018-11-27T12:09:08.803Z,2872
2018-11-27T12:10:08.820Z,2808
2018-11-27T12:11:09.091Z,2728
2018-11-27T12:12:09.040Z,2660
2018-11-27T12:13:08.802Z,2640
2018-11-27T12:14:09.040Z,2660
2018-11-27T12:15:09.033Z,2712
2018-11-27T12:16:09.050Z,2860
2018-11-27T12:17:08.786Z,3032
2018-11-27T12:18:08.798Z,3200
2018-11-27T12:19:09.027Z,3304
2018-11-27T12:20:09.037Z,3432
2018-11-27T12:21:09.024Z,3536
2018-11-27T12:22:09.022Z,3592
2018-11-27T12:23:09.685Z,3684
2018-11-27T12:24:09.013Z,3812
2018-11-27T12:25:08.766Z,3912
2018-11-27T12:26:09.064Z,3980
2018-11-27T12:27:09.014Z,4052
2018-11-27T12:28:14.273Z,4116
2018-11-27T12:29:09.009Z,4188
2018-11-27T12:30:08.614Z,4212
2018-11-27T12:31:09.137Z,4192
2018-11-27T12:32:09.004Z,4208
2018-11-27T12:33:08.764Z,4196
2018-11-27T12:34:08.991Z,4160
2018-11-27T12:35:08.998Z,4120
2018-11-27T12:36:08.993Z,4012
2018-11-27T12:37:08.981Z,3816
2018-11-27T12:38:08.750Z,3572
2018-11-27T12:39:08.736Z,3372
2018-11-27T12:40:08.995Z,3232
2018-11-27T12:41:12.631Z,3084
2018-11-27T12:42:08.975Z,2996
2018-11-27T12:43:08.752Z,2976
2018-11-27T12:44:08.976Z,2968
2018-11-27T12:45:08.992Z,2896
2018-11-27T12:46:09.085Z,2820
2018-11-27T12:47:08.967Z,2764
2018-11-27T12:48:08.958Z,2608
2018-11-27T12:49:08.964Z,2532
2018-11-27T12:50:08.708Z,2628
2018-11-27T12:51:09.374Z,2616
2018-11-27T12:52:08.943Z,2724
2018-11-27T12:53:08.780Z,2840
2018-11-27T12:54:08.946Z,2920
2018-11-27T12:55:08.946Z,2924
2018-11-27T12:56:08.745Z,2864
2018-11-27T12:57:08.937Z,2784
2018-11-27T12:58:08.696Z,2700
2018-11-27T12:59:08.932Z,2604
2018-11-27T13:00:08.949Z,2508
2018-11-27T13:01:14.206Z,2400
2018-11-27T13:02:08.932Z,2324
2018-11-27T13:03:08.685Z,2228
2018-11-27T13:04:08.677Z,2148
2018-11-27T13:05:08.920Z,2100
2018-11-27T13:06:08.930Z,2060
2018-11-27T13:07:08.916Z,2056
2018-11-27T13:08:08.907Z,2112
2018-11-27T13:09:08.922Z,2188
2018-11-27T13:10:09.807Z,2288
2018-11-27T13:11:13.880Z,2368
2018-11-27T13:12:08.899Z,2428
2018-11-27T13:13:08.660Z,2508
2018-11-27T13:14:08.917Z,2540
2018-11-27T13:15:08.897Z,2624
2018-11-27T13:16:08.916Z,2772
2018-11-27T13:17:08.919Z,2932
2018-11-27T13:18:08.891Z,3060
2018-11-27T13:19:08.885Z,3168
2018-11-27T13:20:08.151Z,3304
2018-11-27T13:21:08.693Z,3500
2018-11-27T13:22:08.633Z,3596
2018-11-27T13:23:08.903Z,3576
2018-11-27T13:24:08.382Z,3440
2018-11-27T13:25:09.390Z,3264
2018-11-27T13:26:08.866Z,3096
2018-11-27T13:27:09.045Z,2932
2018-11-27T13:28:08.864Z,2824
2018-11-27T13:29:08.619Z,2720
2018-11-27T13:30:08.860Z,2580
2018-11-27T13:31:08.665Z,2460
2018-11-27T13:32:08.849Z,2348
2018-11-27T13:33:08.855Z,2280
2018-11-27T13:34:08.857Z,2264
2018-11-27T13:35:08.607Z,2296
2018-11-27T13:36:08.835Z,2344
2018-11-27T13:37:09.577Z,2388
2018-11-27T13:38:08.941Z,2448
2018-11-27T13:39:08.353Z,2520
2018-11-27T13:40:08.834Z,2568
2018-11-27T13:41:08.830Z,2576
2018-11-27T13:42:08.591Z,2572
2018-11-27T13:43:08.825Z,2544
2018-11-27T13:44:08.817Z,2512
2018-11-27T13:45:08.331Z,2468
2018-11-27T13:46:08.816Z,2428
2018-11-27T13:47:08.816Z,2384
2018-11-27T13:48:08.860Z,2336
2018-11-27T13:49:08.812Z,2280
2018-11-27T13:50:08.569Z,2196
2018-11-27T13:51:08.806Z,2096
2018-11-27T13:52:08.813Z,2000
2018-11-27T13:53:09.282Z,1896
2018-11-27T13:54:08.313Z,1824
2018-11-27T13:55:08.306Z,1772
2018-11-27T13:56:08.364Z,1772
2018-11-27T13:57:08.552Z,1792
2018-11-27T13:58:08.799Z,1820
2018-11-27T13:59:08.543Z,1876
2018-11-27T14:00:08.834Z,1944